sensor_id;sensor_type;location;lat;lon;timestamp;P1;durP1;ratioP1;P2;durP2;ratioP2
10154;SDS011;5118;48.570;7.916;2023-08-08T00:09:15;4.10;;;2.40;;
10154;SDS011;5118;48.570;7.916;2023-08-08T00:12:38;2.83;;;2.27;;
10154;SDS011;5118;48.570;7.916;2023-08-08T00:15:23;3.97;;;2.80;;
10154;SDS011;5118;48.570;7.916;2023-08-08T00:20:05;2.80;;;2.60;;
10154;SDS011;5118;48.570;7.916;2023-08-08T00:23:25;3.20;;;2.40;;
10154;SDS011;5118;48.570;7.916;2023-08-08T00:36:15;3.00;;;2.67;;
10154;SDS011;5118;48.570;7.916;2023-08-08T00:45:18;2.80;;;2.43;;
10154;SDS011;5118;48.570;7.916;2023-08-08T02:03:17;3.13;;;2.30;;
10154;SDS011;5118;48.570;7.916;2023-08-08T02:06:09;3.47;;;2.70;;
10154;SDS011;5118;48.570;7.916;2023-08-08T02:18:07;4.37;;;2.50;;
10154;SDS011;5118;48.570;7.916;2023-08-08T02:25:36;2.50;;;2.30;;
10154;SDS011;5118;48.570;7.916;2023-08-08T02:29:36;3.00;;;2.70;;
10154;SDS011;5118;48.570;7.916;2023-08-08T02:32:06;3.20;;;2.50;;
10154;SDS011;5118;48.570;7.916;2023-08-08T02:43:48;4.27;;;2.60;;
10154;SDS011;5118;48.570;7.916;2023-08-08T03:09:25;2.87;;;2.50;;
10154;SDS011;5118;48.570;7.916;2023-08-08T03:16:09;2.60;;;2.40;;
10154;SDS011;5118;48.570;7.916;2023-08-08T03:45:01;4.47;;;2.90;;
10154;SDS011;5118;48.570;7.916;2023-08-08T03:48:46;3.40;;;3.00;;
10154;SDS011;5118;48.570;7.916;2023-08-08T04:46:55;2.83;;;2.60;;
10154;SDS011;5118;48.570;7.916;2023-08-08T04:49:36;4.27;;;2.63;;
10154;SDS011;5118;48.570;7.916;2023-08-08T04:52:10;4.53;;;2.77;;
10154;SDS011;5118;48.570;7.916;2023-08-08T04:55:05;3.00;;;2.70;;
10154;SDS011;5118;48.570;7.916;2023-08-08T05:24:24;2.90;;;2.67;;
10154;SDS011;5118;48.570;7.916;2023-08-08T05:26:52;4.20;;;2.70;;
10154;SDS011;5118;48.570;7.916;2023-08-08T05:39:16;3.23;;;2.40;;
10154;SDS011;5118;48.570;7.916;2023-08-08T05:43:13;4.23;;;2.37;;
10154;SDS011;5118;48.570;7.916;2023-08-08T06:26:15;3.60;;;2.10;;
10154;SDS011;5118;48.570;7.916;2023-08-08T06:28:45;2.73;;;2.17;;
10154;SDS011;5118;48.570;7.916;2023-08-08T06:35:39;3.53;;;2.30;;
10154;SDS011;5118;48.570;7.916;2023-08-08T06:38:17;2.33;;;2.00;;
10154;SDS011;5118;48.570;7.916;2023-08-08T06:40:51;3.40;;;2.20;;
10154;SDS011;5118;48.570;7.916;2023-08-08T06:43:22;3.97;;;2.17;;
10154;SDS011;5118;48.570;7.916;2023-08-08T06:53:00;3.63;;;1.80;;
10154;SDS011;5118;48.570;7.916;2023-08-08T06:55:48;5.50;;;2.03;;
10154;SDS011;5118;48.570;7.916;2023-08-08T06:59:58;3.57;;;2.07;;
10154;SDS011;5118;48.570;7.916;2023-08-08T07:02:36;2.70;;;1.77;;
10154;SDS011;5118;48.570;7.916;2023-08-08T07:05:05;2.10;;;1.90;;
10154;SDS011;5118;48.570;7.916;2023-08-08T07:07:36;2.37;;;1.87;;
10154;SDS011;5118;48.570;7.916;2023-08-08T07:10:06;3.80;;;2.07;;
10154;SDS011;5118;48.570;7.916;2023-08-08T07:12:36;2.10;;;1.77;;
10154;SDS011;5118;48.570;7.916;2023-08-08T07:15:07;2.13;;;1.80;;
10154;SDS011;5118;48.570;7.916;2023-08-08T07:17:37;2.80;;;1.80;;
10154;SDS011;5118;48.570;7.916;2023-08-08T07:20:06;3.10;;;1.90;;
10154;SDS011;5118;48.570;7.916;2023-08-08T07:22:36;3.83;;;2.00;;
10154;SDS011;5118;48.570;7.916;2023-08-08T07:25:06;2.43;;;2.03;;
10154;SDS011;5118;48.570;7.916;2023-08-08T07:27:35;2.80;;;1.80;;
10154;SDS011;5118;48.570;7.916;2023-08-08T07:30:04;3.53;;;2.03;;
10154;SDS011;5118;48.570;7.916;2023-08-08T07:32:35;2.43;;;1.83;;
10154;SDS011;5118;48.570;7.916;2023-08-08T07:35:04;2.63;;;1.90;;
10154;SDS011;5118;48.570;7.916;2023-08-08T07:37:35;2.70;;;1.80;;
10154;SDS011;5118;48.570;7.916;2023-08-08T07:40:09;3.83;;;1.80;;
10154;SDS011;5118;48.570;7.916;2023-08-08T07:42:42;1.98;;;1.85;;
10154;SDS011;5118;48.570;7.916;2023-08-08T07:45:11;3.08;;;1.90;;
10154;SDS011;5118;48.570;7.916;2023-08-08T07:47:41;2.10;;;1.90;;
10154;SDS011;5118;48.570;7.916;2023-08-08T07:50:09;1.85;;;1.75;;
10154;SDS011;5118;48.570;7.916;2023-08-08T07:52:38;3.00;;;1.90;;
10154;SDS011;5118;48.570;7.916;2023-08-08T07:55:08;3.55;;;2.00;;
10154;SDS011;5118;48.570;7.916;2023-08-08T07:57:36;2.00;;;1.83;;
10154;SDS011;5118;48.570;7.916;2023-08-08T08:00:06;2.00;;;1.80;;
10154;SDS011;5118;48.570;7.916;2023-08-08T08:02:41;1.83;;;1.73;;
10154;SDS011;5118;48.570;7.916;2023-08-08T08:05:11;2.78;;;1.90;;
10154;SDS011;5118;48.570;7.916;2023-08-08T08:07:41;3.22;;;1.90;;
10154;SDS011;5118;48.570;7.916;2023-08-08T08:10:11;3.13;;;1.88;;
10154;SDS011;5118;48.570;7.916;2023-08-08T08:12:40;2.75;;;1.92;;
10154;SDS011;5118;48.570;7.916;2023-08-08T08:15:10;2.22;;;1.77;;
10154;SDS011;5118;48.570;7.916;2023-08-08T08:17:39;2.25;;;2.00;;
10154;SDS011;5118;48.570;7.916;2023-08-08T08:20:09;2.38;;;1.77;;
10154;SDS011;5118;48.570;7.916;2023-08-08T08:22:39;2.33;;;1.60;;
10154;SDS011;5118;48.570;7.916;2023-08-08T08:25:08;2.58;;;2.00;;
10154;SDS011;5118;48.570;7.916;2023-08-08T08:27:36;3.33;;;1.88;;
10154;SDS011;5118;48.570;7.916;2023-08-08T08:30:07;2.78;;;2.00;;
10154;SDS011;5118;48.570;7.916;2023-08-08T08:32:37;2.08;;;1.88;;
10154;SDS011;5118;48.570;7.916;2023-08-08T08:35:09;2.90;;;1.80;;
10154;SDS011;5118;48.570;7.916;2023-08-08T08:37:39;2.72;;;1.83;;
10154;SDS011;5118;48.570;7.916;2023-08-08T08:40:08;2.05;;;1.70;;
10154;SDS011;5118;48.570;7.916;2023-08-08T08:42:38;1.90;;;1.80;;
10154;SDS011;5118;48.570;7.916;2023-08-08T08:45:08;2.10;;;1.90;;
10154;SDS011;5118;48.570;7.916;2023-08-08T08:47:37;2.83;;;1.80;;
10154;SDS011;5118;48.570;7.916;2023-08-08T08:50:11;2.55;;;1.80;;
10154;SDS011;5118;48.570;7.916;2023-08-08T08:52:41;3.15;;;1.95;;
10154;SDS011;5118;48.570;7.916;2023-08-08T08:55:10;2.97;;;2.10;;
10154;SDS011;5118;48.570;7.916;2023-08-08T08:57:39;2.88;;;2.00;;
10154;SDS011;5118;48.570;7.916;2023-08-08T09:00:11;3.38;;;1.90;;
10154;SDS011;5118;48.570;7.916;2023-08-08T09:02:45;2.78;;;1.98;;
10154;SDS011;5118;48.570;7.916;2023-08-08T09:05:17;3.40;;;2.05;;
10154;SDS011;5118;48.570;7.916;2023-08-08T09:07:49;2.58;;;1.90;;
10154;SDS011;5118;48.570;7.916;2023-08-08T09:10:18;4.13;;;2.20;;
10154;SDS011;5118;48.570;7.916;2023-08-08T09:12:47;2.30;;;2.10;;
10154;SDS011;5118;48.570;7.916;2023-08-08T09:15:15;2.88;;;2.17;;
10154;SDS011;5118;48.570;7.916;2023-08-08T09:17:44;2.75;;;1.98;;
10154;SDS011;5118;48.570;7.916;2023-08-08T09:20:15;3.15;;;1.90;;
10154;SDS011;5118;48.570;7.916;2023-08-08T09:22:46;2.75;;;1.90;;
10154;SDS011;5118;48.570;7.916;2023-08-08T09:25:15;2.55;;;1.92;;
10154;SDS011;5118;48.570;7.916;2023-08-08T09:27:43;4.40;;;2.10;;
10154;SDS011;5118;48.570;7.916;2023-08-08T09:30:12;3.88;;;2.13;;
10154;SDS011;5118;48.570;7.916;2023-08-08T09:32:42;4.13;;;2.10;;
10154;SDS011;5118;48.570;7.916;2023-08-08T09:35:11;2.92;;;2.20;;
10154;SDS011;5118;48.570;7.916;2023-08-08T09:37:41;4.88;;;2.00;;
10154;SDS011;5118;48.570;7.916;2023-08-08T09:40:10;4.55;;;1.90;;
10154;SDS011;5118;48.570;7.916;2023-08-08T09:42:39;2.90;;;1.80;;
10154;SDS011;5118;48.570;7.916;2023-08-08T09:45:09;2.22;;;1.92;;
10154;SDS011;5118;48.570;7.916;2023-08-08T09:47:38;2.78;;;2.00;;
10154;SDS011;5118;48.570;7.916;2023-08-08T09:50:07;2.58;;;2.03;;
10154;SDS011;5118;48.570;7.916;2023-08-08T09:52:36;2.28;;;2.00;;
10154;SDS011;5118;48.570;7.916;2023-08-08T09:55:08;2.65;;;1.67;;
10154;SDS011;5118;48.570;7.916;2023-08-08T09:57:38;1.90;;;1.70;;
10154;SDS011;5118;48.570;7.916;2023-08-08T10:00:07;2.15;;;1.63;;
10154;SDS011;5118;48.570;7.916;2023-08-08T10:02:43;1.92;;;1.60;;
10154;SDS011;5118;48.570;7.916;2023-08-08T10:05:13;3.00;;;1.90;;
10154;SDS011;5118;48.570;7.916;2023-08-08T10:07:42;3.08;;;1.95;;
10154;SDS011;5118;48.570;7.916;2023-08-08T10:10:13;3.70;;;1.80;;
10154;SDS011;5118;48.570;7.916;2023-08-08T10:12:41;2.08;;;1.88;;
10154;SDS011;5118;48.570;7.916;2023-08-08T10:15:10;3.38;;;1.90;;
10154;SDS011;5118;48.570;7.916;2023-08-08T10:17:39;2.72;;;1.90;;
10154;SDS011;5118;48.570;7.916;2023-08-08T10:20:10;2.17;;;1.80;;
10154;SDS011;5118;48.570;7.916;2023-08-08T10:22:42;2.95;;;1.90;;
10154;SDS011;5118;48.570;7.916;2023-08-08T10:25:18;1.98;;;1.75;;
10154;SDS011;5118;48.570;7.916;2023-08-08T10:27:48;2.53;;;2.03;;
10154;SDS011;5118;48.570;7.916;2023-08-08T10:30:16;3.33;;;2.13;;
10154;SDS011;5118;48.570;7.916;2023-08-08T10:32:45;2.22;;;1.90;;
10154;SDS011;5118;48.570;7.916;2023-08-08T10:35:19;2.08;;;1.83;;
10154;SDS011;5118;48.570;7.916;2023-08-08T10:37:53;3.50;;;1.90;;
10154;SDS011;5118;48.570;7.916;2023-08-08T10:40:23;4.28;;;2.05;;
10154;SDS011;5118;48.570;7.916;2023-08-08T10:43:09;2.95;;;1.80;;
10154;SDS011;5118;48.570;7.916;2023-08-08T10:45:40;2.05;;;1.83;;
10154;SDS011;5118;48.570;7.916;2023-08-08T10:48:10;2.60;;;2.00;;
10154;SDS011;5118;48.570;7.916;2023-08-08T10:50:39;1.90;;;1.80;;
10154;SDS011;5118;48.570;7.916;2023-08-08T10:53:08;2.88;;;1.83;;
10154;SDS011;5118;48.570;7.916;2023-08-08T10:55:39;2.33;;;1.80;;
10154;SDS011;5118;48.570;7.916;2023-08-08T10:58:07;2.67;;;1.80;;
10154;SDS011;5118;48.570;7.916;2023-08-08T11:00:37;2.67;;;1.92;;
10154;SDS011;5118;48.570;7.916;2023-08-08T11:03:07;3.70;;;2.15;;
10154;SDS011;5118;48.570;7.916;2023-08-08T11:05:37;2.53;;;1.80;;
10154;SDS011;5118;48.570;7.916;2023-08-08T11:08:06;2.38;;;2.17;;
10154;SDS011;5118;48.570;7.916;2023-08-08T11:10:35;2.00;;;1.80;;
10154;SDS011;5118;48.570;7.916;2023-08-08T11:13:05;2.03;;;1.70;;
10154;SDS011;5118;48.570;7.916;2023-08-08T11:15:35;1.75;;;1.58;;
10154;SDS011;5118;48.570;7.916;2023-08-08T11:18:06;2.45;;;1.77;;
10154;SDS011;5118;48.570;7.916;2023-08-08T11:20:59;1.98;;;1.60;;
10154;SDS011;5118;48.570;7.916;2023-08-08T11:24:08;1.92;;;1.48;;
10154;SDS011;5118;48.570;7.916;2023-08-08T11:27:06;2.92;;;1.60;;
10154;SDS011;5118;48.570;7.916;2023-08-08T11:29:36;2.63;;;1.77;;
10154;SDS011;5118;48.570;7.916;2023-08-08T11:32:05;2.97;;;2.45;;
10154;SDS011;5118;48.570;7.916;2023-08-08T11:34:48;3.75;;;1.50;;
10154;SDS011;5118;48.570;7.916;2023-08-08T11:37:17;2.28;;;1.60;;
10154;SDS011;5118;48.570;7.916;2023-08-08T11:39:46;1.63;;;1.52;;
10154;SDS011;5118;48.570;7.916;2023-08-08T11:42:15;1.65;;;1.40;;
10154;SDS011;5118;48.570;7.916;2023-08-08T11:44:45;1.70;;;1.60;;
10154;SDS011;5118;48.570;7.916;2023-08-08T11:47:17;2.28;;;1.50;;
10154;SDS011;5118;48.570;7.916;2023-08-08T11:49:48;2.03;;;1.60;;
10154;SDS011;5118;48.570;7.916;2023-08-08T11:52:16;2.30;;;1.52;;
10154;SDS011;5118;48.570;7.916;2023-08-08T11:54:49;1.75;;;1.60;;
10154;SDS011;5118;48.570;7.916;2023-08-08T11:57:19;1.83;;;1.60;;
10154;SDS011;5118;48.570;7.916;2023-08-08T11:59:53;2.17;;;1.50;;
10154;SDS011;5118;48.570;7.916;2023-08-08T12:02:22;1.88;;;1.70;;
10154;SDS011;5118;48.570;7.916;2023-08-08T12:04:51;3.40;;;1.95;;
10154;SDS011;5118;48.570;7.916;2023-08-08T12:07:21;3.72;;;2.38;;
10154;SDS011;5118;48.570;7.916;2023-08-08T12:09:52;2.28;;;1.60;;
10154;SDS011;5118;48.570;7.916;2023-08-08T12:12:20;2.13;;;1.70;;
10154;SDS011;5118;48.570;7.916;2023-08-08T12:14:49;3.63;;;1.80;;
10154;SDS011;5118;48.570;7.916;2023-08-08T12:17:23;1.92;;;1.52;;
10154;SDS011;5118;48.570;7.916;2023-08-08T12:19:53;2.50;;;1.70;;
10154;SDS011;5118;48.570;7.916;2023-08-08T12:22:22;2.10;;;1.70;;
10154;SDS011;5118;48.570;7.916;2023-08-08T12:24:50;3.00;;;1.75;;
10154;SDS011;5118;48.570;7.916;2023-08-08T12:27:19;3.95;;;1.70;;
10154;SDS011;5118;48.570;7.916;2023-08-08T12:29:48;3.60;;;1.80;;
10154;SDS011;5118;48.570;7.916;2023-08-08T12:32:17;3.60;;;1.80;;
10154;SDS011;5118;48.570;7.916;2023-08-08T12:34:57;2.47;;;1.92;;
10154;SDS011;5118;48.570;7.916;2023-08-08T12:41:25;2.58;;;1.63;;
10154;SDS011;5118;48.570;7.916;2023-08-08T12:43:57;3.22;;;1.70;;
10154;SDS011;5118;48.570;7.916;2023-08-08T12:46:26;2.97;;;2.00;;
10154;SDS011;5118;48.570;7.916;2023-08-08T12:48:55;2.78;;;1.83;;
10154;SDS011;5118;48.570;7.916;2023-08-08T12:52:05;2.50;;;1.80;;
10154;SDS011;5118;48.570;7.916;2023-08-08T12:54:51;3.38;;;1.52;;
10154;SDS011;5118;48.570;7.916;2023-08-08T12:57:20;1.60;;;1.50;;
10154;SDS011;5118;48.570;7.916;2023-08-08T13:00:31;3.00;;;1.67;;
10154;SDS011;5118;48.570;7.916;2023-08-08T13:03:08;1.92;;;1.50;;
10154;SDS011;5118;48.570;7.916;2023-08-08T13:05:39;4.63;;;1.70;;
10154;SDS011;5118;48.570;7.916;2023-08-08T13:10:59;2.35;;;1.77;;
10154;SDS011;5118;48.570;7.916;2023-08-08T13:13:39;1.90;;;1.67;;
10154;SDS011;5118;48.570;7.916;2023-08-08T13:16:20;1.80;;;1.70;;
10154;SDS011;5118;48.570;7.916;2023-08-08T13:19:43;2.55;;;1.60;;
10154;SDS011;5118;48.570;7.916;2023-08-08T13:22:21;2.47;;;1.80;;
10154;SDS011;5118;48.570;7.916;2023-08-08T13:25:06;1.90;;;1.70;;
10154;SDS011;5118;48.570;7.916;2023-08-08T13:27:38;2.33;;;1.60;;
10154;SDS011;5118;48.570;7.916;2023-08-08T13:30:16;2.33;;;1.65;;
10154;SDS011;5118;48.570;7.916;2023-08-08T13:32:54;3.08;;;1.77;;
10154;SDS011;5118;48.570;7.916;2023-08-08T13:35:41;2.00;;;1.80;;
10154;SDS011;5118;48.570;7.916;2023-08-08T13:42:02;2.70;;;1.50;;
10154;SDS011;5118;48.570;7.916;2023-08-08T14:23:25;1.92;;;1.60;;
10154;SDS011;5118;48.570;7.916;2023-08-08T14:31:02;2.00;;;1.73;;
10154;SDS011;5118;48.570;7.916;2023-08-08T14:33:35;3.55;;;1.80;;
10154;SDS011;5118;48.570;7.916;2023-08-08T14:37:44;1.98;;;1.70;;
10154;SDS011;5118;48.570;7.916;2023-08-08T14:45:23;3.55;;;1.63;;
10154;SDS011;5118;48.570;7.916;2023-08-08T14:51:51;1.92;;;1.73;;
10154;SDS011;5118;48.570;7.916;2023-08-08T14:54:33;3.90;;;1.70;;
10154;SDS011;5118;48.570;7.916;2023-08-08T14:57:29;1.83;;;1.65;;
10154;SDS011;5118;48.570;7.916;2023-08-08T15:01:19;3.10;;;1.60;;
10154;SDS011;5118;48.570;7.916;2023-08-08T15:03:12;3.22;;;1.70;;
10154;SDS011;5118;48.570;7.916;2023-08-08T15:06:04;1.65;;;1.50;;
10154;SDS011;5118;48.570;7.916;2023-08-08T15:08:34;3.08;;;1.75;;
10154;SDS011;5118;48.570;7.916;2023-08-08T15:11:04;1.50;;;1.40;;
10154;SDS011;5118;48.570;7.916;2023-08-08T15:13:41;1.60;;;1.50;;
10154;SDS011;5118;48.570;7.916;2023-08-08T15:16:10;1.65;;;1.55;;
10154;SDS011;5118;48.570;7.916;2023-08-08T15:18:42;3.28;;;1.60;;
10154;SDS011;5118;48.570;7.916;2023-08-08T15:21:26;1.90;;;1.52;;
10154;SDS011;5118;48.570;7.916;2023-08-08T15:24:04;1.63;;;1.50;;
10154;SDS011;5118;48.570;7.916;2023-08-08T15:29:39;3.60;;;1.85;;
10154;SDS011;5118;48.570;7.916;2023-08-08T15:32:31;3.58;;;1.65;;
10154;SDS011;5118;48.570;7.916;2023-08-08T15:35:00;3.20;;;1.70;;
10154;SDS011;5118;48.570;7.916;2023-08-08T15:37:54;2.65;;;1.60;;
10154;SDS011;5118;48.570;7.916;2023-08-08T15:40:34;2.33;;;1.52;;
10154;SDS011;5118;48.570;7.916;2023-08-08T15:43:06;2.50;;;1.60;;
10154;SDS011;5118;48.570;7.916;2023-08-08T15:45:35;1.92;;;1.70;;
10154;SDS011;5118;48.570;7.916;2023-08-08T15:53:26;1.67;;;1.52;;
10154;SDS011;5118;48.570;7.916;2023-08-08T15:56:43;1.70;;;1.45;;
10154;SDS011;5118;48.570;7.916;2023-08-08T15:59:31;3.47;;;1.80;;
10154;SDS011;5118;48.570;7.916;2023-08-08T16:02:05;2.15;;;1.48;;
10154;SDS011;5118;48.570;7.916;2023-08-08T16:04:45;2.35;;;1.52;;
10154;SDS011;5118;48.570;7.916;2023-08-08T16:07:19;2.15;;;1.50;;
10154;SDS011;5118;48.570;7.916;2023-08-08T16:09:56;5.03;;;4.20;;
10154;SDS011;5118;48.570;7.916;2023-08-08T16:12:24;1.65;;;1.55;;
10154;SDS011;5118;48.570;7.916;2023-08-08T16:14:54;3.88;;;1.88;;
10154;SDS011;5118;48.570;7.916;2023-08-08T16:20:44;2.67;;;1.80;;
10154;SDS011;5118;48.570;7.916;2023-08-08T16:24:40;2.08;;;1.65;;
10154;SDS011;5118;48.570;7.916;2023-08-08T16:27:09;2.42;;;1.80;;
10154;SDS011;5118;48.570;7.916;2023-08-08T16:30:00;3.85;;;1.90;;
10154;SDS011;5118;48.570;7.916;2023-08-08T16:33:22;1.65;;;1.50;;
10154;SDS011;5118;48.570;7.916;2023-08-08T16:37:04;1.83;;;1.70;;
10154;SDS011;5118;48.570;7.916;2023-08-08T16:39:39;1.70;;;1.52;;
10154;SDS011;5118;48.570;7.916;2023-08-08T16:44:59;2.70;;;1.60;;
10154;SDS011;5118;48.570;7.916;2023-08-08T16:47:48;1.63;;;1.50;;
10154;SDS011;5118;48.570;7.916;2023-08-08T16:50:42;1.88;;;1.65;;
10154;SDS011;5118;48.570;7.916;2023-08-08T16:53:23;5.57;;;1.50;;
10154;SDS011;5118;48.570;7.916;2023-08-08T16:55:52;2.35;;;1.50;;
10154;SDS011;5118;48.570;7.916;2023-08-08T16:58:21;2.63;;;1.70;;
10154;SDS011;5118;48.570;7.916;2023-08-08T17:01:02;4.63;;;1.70;;
10154;SDS011;5118;48.570;7.916;2023-08-08T17:03:40;3.50;;;1.67;;
10154;SDS011;5118;48.570;7.916;2023-08-08T17:06:09;2.35;;;1.50;;
10154;SDS011;5118;48.570;7.916;2023-08-08T17:09:02;2.05;;;1.80;;
10154;SDS011;5118;48.570;7.916;2023-08-08T17:11:32;1.85;;;1.65;;
10154;SDS011;5118;48.570;7.916;2023-08-08T17:14:01;2.45;;;1.60;;
10154;SDS011;5118;48.570;7.916;2023-08-08T17:16:52;2.17;;;1.80;;
10154;SDS011;5118;48.570;7.916;2023-08-08T17:19:21;3.03;;;1.70;;
10154;SDS011;5118;48.570;7.916;2023-08-08T17:21:55;1.70;;;1.60;;
10154;SDS011;5118;48.570;7.916;2023-08-08T17:24:35;2.42;;;1.70;;
10154;SDS011;5118;48.570;7.916;2023-08-08T17:27:06;2.50;;;1.70;;
10154;SDS011;5118;48.570;7.916;2023-08-08T17:29:40;1.90;;;1.63;;
10154;SDS011;5118;48.570;7.916;2023-08-08T17:32:36;1.92;;;1.73;;
10154;SDS011;5118;48.570;7.916;2023-08-08T17:35:07;1.70;;;1.60;;
10154;SDS011;5118;48.570;7.916;2023-08-08T17:38:59;2.72;;;1.88;;
10154;SDS011;5118;48.570;7.916;2023-08-08T17:41:31;2.85;;;1.80;;
10154;SDS011;5118;48.570;7.916;2023-08-08T17:44:14;3.05;;;1.83;;
10154;SDS011;5118;48.570;7.916;2023-08-08T17:46:57;3.25;;;1.85;;
10154;SDS011;5118;48.570;7.916;2023-08-08T17:50:08;2.58;;;1.90;;
10154;SDS011;5118;48.570;7.916;2023-08-08T17:53:00;3.13;;;2.00;;
10154;SDS011;5118;48.570;7.916;2023-08-08T18:01:24;2.42;;;1.95;;
10154;SDS011;5118;48.570;7.916;2023-08-08T18:03:53;3.15;;;1.80;;
10154;SDS011;5118;48.570;7.916;2023-08-08T18:06:24;3.08;;;1.70;;
10154;SDS011;5118;48.570;7.916;2023-08-08T18:09:04;1.88;;;1.70;;
10154;SDS011;5118;48.570;7.916;2023-08-08T18:11:39;1.98;;;1.80;;
10154;SDS011;5118;48.570;7.916;2023-08-08T18:15:40;1.98;;;1.80;;
10154;SDS011;5118;48.570;7.916;2023-08-08T18:17:48;2.30;;;1.85;;
10154;SDS011;5118;48.570;7.916;2023-08-08T18:20:53;2.78;;;1.77;;
10154;SDS011;5118;48.570;7.916;2023-08-08T18:26:30;3.28;;;1.88;;
10154;SDS011;5118;48.570;7.916;2023-08-08T18:29:04;2.67;;;2.00;;
10154;SDS011;5118;48.570;7.916;2023-08-08T18:32:46;5.18;;;2.00;;
10154;SDS011;5118;48.570;7.916;2023-08-08T18:35:18;3.03;;;2.00;;
10154;SDS011;5118;48.570;7.916;2023-08-08T18:38:05;2.40;;;1.90;;
10154;SDS011;5118;48.570;7.916;2023-08-08T18:41:02;3.08;;;1.83;;
10154;SDS011;5118;48.570;7.916;2023-08-08T18:43:44;3.13;;;1.95;;
10154;SDS011;5118;48.570;7.916;2023-08-08T18:47:32;3.03;;;1.90;;
10154;SDS011;5118;48.570;7.916;2023-08-08T18:50:10;3.80;;;1.92;;
10154;SDS011;5118;48.570;7.916;2023-08-08T18:52:39;3.83;;;2.20;;
10154;SDS011;5118;48.570;7.916;2023-08-08T18:55:14;3.40;;;2.20;;
10154;SDS011;5118;48.570;7.916;2023-08-08T18:57:53;3.13;;;2.58;;
10154;SDS011;5118;48.570;7.916;2023-08-08T19:00:42;3.33;;;2.35;;
10154;SDS011;5118;48.570;7.916;2023-08-08T19:04:21;4.00;;;2.30;;
10154;SDS011;5118;48.570;7.916;2023-08-08T19:13:14;2.55;;;1.80;;
10154;SDS011;5118;48.570;7.916;2023-08-08T19:15:43;3.20;;;2.10;;
10154;SDS011;5118;48.570;7.916;2023-08-08T19:18:16;2.83;;;2.15;;
10154;SDS011;5118;48.570;7.916;2023-08-08T19:20:52;2.65;;;2.20;;
10154;SDS011;5118;48.570;7.916;2023-08-08T19:23:39;2.58;;;2.00;;
10154;SDS011;5118;48.570;7.916;2023-08-08T19:26:13;2.10;;;1.90;;
10154;SDS011;5118;48.570;7.916;2023-08-08T19:28:44;2.38;;;2.17;;
10154;SDS011;5118;48.570;7.916;2023-08-08T19:31:14;5.22;;;2.45;;
10154;SDS011;5118;48.570;7.916;2023-08-08T19:34:03;2.75;;;2.13;;
10154;SDS011;5118;48.570;7.916;2023-08-08T19:36:33;3.35;;;2.22;;
10154;SDS011;5118;48.570;7.916;2023-08-08T19:39:05;3.40;;;2.00;;
10154;SDS011;5118;48.570;7.916;2023-08-08T19:42:17;2.58;;;2.00;;
10154;SDS011;5118;48.570;7.916;2023-08-08T19:45:11;2.10;;;1.90;;
10154;SDS011;5118;48.570;7.916;2023-08-08T19:51:06;2.78;;;2.17;;
10154;SDS011;5118;48.570;7.916;2023-08-08T19:53:39;3.75;;;2.28;;
10154;SDS011;5118;48.570;7.916;2023-08-08T19:57:36;2.58;;;2.17;;
10154;SDS011;5118;48.570;7.916;2023-08-08T20:03:21;2.90;;;1.98;;
10154;SDS011;5118;48.570;7.916;2023-08-08T20:05:52;6.22;;;2.53;;
10154;SDS011;5118;48.570;7.916;2023-08-08T20:08:34;2.80;;;2.50;;
10154;SDS011;5118;48.570;7.916;2023-08-08T20:11:57;2.70;;;2.50;;
10154;SDS011;5118;48.570;7.916;2023-08-08T20:14:42;3.00;;;2.10;;
10154;SDS011;5118;48.570;7.916;2023-08-08T20:22:33;2.78;;;2.28;;
10154;SDS011;5118;48.570;7.916;2023-08-08T20:25:33;2.30;;;2.10;;
10154;SDS011;5118;48.570;7.916;2023-08-08T20:28:05;3.67;;;2.20;;
10154;SDS011;5118;48.570;7.916;2023-08-08T20:36:31;6.47;;;2.42;;
10154;SDS011;5118;48.570;7.916;2023-08-08T20:39:01;4.90;;;2.40;;
10154;SDS011;5118;48.570;7.916;2023-08-08T20:41:31;3.05;;;2.30;;
10154;SDS011;5118;48.570;7.916;2023-08-08T20:43:59;2.40;;;2.20;;
10154;SDS011;5118;48.570;7.916;2023-08-08T20:46:30;4.60;;;2.40;;
10154;SDS011;5118;48.570;7.916;2023-08-08T20:48:59;2.78;;;2.15;;
10154;SDS011;5118;48.570;7.916;2023-08-08T20:51:28;2.90;;;2.13;;
10154;SDS011;5118;48.570;7.916;2023-08-08T20:53:56;3.35;;;2.20;;
10154;SDS011;5118;48.570;7.916;2023-08-08T20:56:26;2.80;;;2.40;;
10154;SDS011;5118;48.570;7.916;2023-08-08T20:58:54;2.65;;;2.20;;
10154;SDS011;5118;48.570;7.916;2023-08-08T21:01:23;2.53;;;2.10;;
10154;SDS011;5118;48.570;7.916;2023-08-08T21:03:51;5.20;;;2.28;;
10154;SDS011;5118;48.570;7.916;2023-08-08T21:06:20;2.30;;;2.10;;
10154;SDS011;5118;48.570;7.916;2023-08-08T21:08:49;2.22;;;2.03;;
10154;SDS011;5118;48.570;7.916;2023-08-08T21:11:28;4.18;;;2.47;;
10154;SDS011;5118;48.570;7.916;2023-08-08T21:22:23;3.50;;;2.30;;
10154;SDS011;5118;48.570;7.916;2023-08-08T21:34:39;3.25;;;2.35;;
10154;SDS011;5118;48.570;7.916;2023-08-08T21:43:42;2.72;;;2.50;;
10154;SDS011;5118;48.570;7.916;2023-08-08T21:46:12;2.55;;;2.35;;
10154;SDS011;5118;48.570;7.916;2023-08-08T21:50:52;3.28;;;2.40;;
10154;SDS011;5118;48.570;7.916;2023-08-08T21:53:20;2.80;;;2.60;;
10154;SDS011;5118;48.570;7.916;2023-08-08T21:55:49;3.60;;;2.70;;
10154;SDS011;5118;48.570;7.916;2023-08-08T21:58:17;3.33;;;2.65;;
10154;SDS011;5118;48.570;7.916;2023-08-08T22:00:45;2.83;;;2.30;;
10154;SDS011;5118;48.570;7.916;2023-08-08T22:03:14;3.10;;;2.58;;
10154;SDS011;5118;48.570;7.916;2023-08-08T22:05:43;4.20;;;2.38;;
10154;SDS011;5118;48.570;7.916;2023-08-08T22:08:12;3.35;;;2.72;;
10154;SDS011;5118;48.570;7.916;2023-08-08T22:10:41;2.50;;;2.30;;
10154;SDS011;5118;48.570;7.916;2023-08-08T22:13:10;3.35;;;2.33;;
10154;SDS011;5118;48.570;7.916;2023-08-08T22:15:38;2.88;;;2.60;;
10154;SDS011;5118;48.570;7.916;2023-08-08T22:18:11;2.88;;;2.50;;
10154;SDS011;5118;48.570;7.916;2023-08-08T22:20:42;2.90;;;2.15;;
10154;SDS011;5118;48.570;7.916;2023-08-08T22:23:13;2.55;;;2.35;;
10154;SDS011;5118;48.570;7.916;2023-08-08T22:25:47;3.63;;;2.53;;
10154;SDS011;5118;48.570;7.916;2023-08-08T22:28:16;2.55;;;2.33;;
10154;SDS011;5118;48.570;7.916;2023-08-08T22:30:45;3.45;;;2.58;;
10154;SDS011;5118;48.570;7.916;2023-08-08T22:37:11;3.08;;;2.40;;
10154;SDS011;5118;48.570;7.916;2023-08-08T22:40:03;3.05;;;2.13;;
10154;SDS011;5118;48.570;7.916;2023-08-08T22:43:31;2.72;;;2.30;;
10154;SDS011;5118;48.570;7.916;2023-08-08T22:46:07;4.35;;;2.30;;
10154;SDS011;5118;48.570;7.916;2023-08-08T22:48:36;3.67;;;2.60;;
10154;SDS011;5118;48.570;7.916;2023-08-08T22:51:27;2.70;;;2.50;;
10154;SDS011;5118;48.570;7.916;2023-08-08T22:53:58;6.13;;;2.50;;
10154;SDS011;5118;48.570;7.916;2023-08-08T22:56:40;3.35;;;2.70;;
10154;SDS011;5118;48.570;7.916;2023-08-08T22:59:09;5.93;;;2.47;;
10154;SDS011;5118;48.570;7.916;2023-08-08T23:01:43;4.07;;;2.45;;
10154;SDS011;5118;48.570;7.916;2023-08-08T23:04:20;3.22;;;2.50;;
10154;SDS011;5118;48.570;7.916;2023-08-08T23:06:48;4.18;;;2.35;;
10154;SDS011;5118;48.570;7.916;2023-08-08T23:09:17;5.95;;;2.58;;
10154;SDS011;5118;48.570;7.916;2023-08-08T23:11:47;3.90;;;2.60;;
10154;SDS011;5118;48.570;7.916;2023-08-08T23:14:28;3.15;;;2.70;;
10154;SDS011;5118;48.570;7.916;2023-08-08T23:17:32;4.27;;;2.77;;
10154;SDS011;5118;48.570;7.916;2023-08-08T23:20:25;4.53;;;2.60;;
10154;SDS011;5118;48.570;7.916;2023-08-08T23:22:54;4.40;;;2.78;;
10154;SDS011;5118;48.570;7.916;2023-08-08T23:25:23;4.28;;;2.67;;
10154;SDS011;5118;48.570;7.916;2023-08-08T23:27:55;3.03;;;2.50;;
10154;SDS011;5118;48.570;7.916;2023-08-08T23:30:24;3.42;;;2.50;;
10154;SDS011;5118;48.570;7.916;2023-08-08T23:32:53;4.13;;;2.70;;
10154;SDS011;5118;48.570;7.916;2023-08-08T23:35:25;3.13;;;2.70;;
10154;SDS011;5118;48.570;7.916;2023-08-08T23:38:03;3.00;;;2.30;;
10154;SDS011;5118;48.570;7.916;2023-08-08T23:40:32;6.03;;;2.72;;
10154;SDS011;5118;48.570;7.916;2023-08-08T23:43:02;3.37;;;2.73;;
10154;SDS011;5118;48.570;7.916;2023-08-08T23:45:31;2.70;;;2.50;;
10154;SDS011;5118;48.570;7.916;2023-08-08T23:48:10;4.47;;;2.40;;
10154;SDS011;5118;48.570;7.916;2023-08-08T23:50:39;4.70;;;2.70;;